Terminal Aerodrome Forecast
Issued by NWS Jackson, KY

Home | Current Version | Previous Version | Text Only | Print | Product List | Glossary On
Versions: 1 2 3 4 5 6 7 8 9 10 11 12 13 14 15 16 17
251
FTUS43 KJKL 191738
TAFLOZ
TAF
KLOZ 191738Z 1918/2018 20014G22KT P6SM BKN050
     FM192300 19008KT P6SM BKN080
     FM200200 19006KT P6SM SCT150
     FM201000 19009KT P6SM BKN110
     FM201700 20011G23KT P6SM SCT110=

USA.gov is the U.S. government's official web portal to all federal, state and local government web resources and services.